createdAt,value
2023-05-06T00:00:56.637Z,3.27
2023-05-06T00:03:24.141Z,3.10
2023-05-06T00:05:51.598Z,3.50
2023-05-06T00:08:19.081Z,3.57
2023-05-06T00:10:46.512Z,3.37
2023-05-06T00:13:14.379Z,3.57
2023-05-06T00:15:41.811Z,3.40
2023-05-06T00:18:09.504Z,3.50
2023-05-06T00:20:38.931Z,3.43
2023-05-06T00:23:06.132Z,3.00
2023-05-06T00:25:33.268Z,2.90
2023-05-06T00:28:01.954Z,3.83
2023-05-06T00:30:29.401Z,3.50
2023-05-06T00:32:57.494Z,3.87
2023-05-06T00:35:24.846Z,3.93
2023-05-06T00:37:59.152Z,3.97
2023-05-06T00:40:26.515Z,3.67
2023-05-06T00:42:54.521Z,3.30
2023-05-06T00:45:21.777Z,3.80
2023-05-06T00:47:48.992Z,3.50
2023-05-06T00:50:16.704Z,3.40
2023-05-06T00:52:46.086Z,3.83
2023-05-06T00:55:15.331Z,3.60
2023-05-06T00:57:42.631Z,3.70
2023-05-06T01:00:11.665Z,3.80
2023-05-06T01:02:47.176Z,4.07
2023-05-06T01:05:16.571Z,3.80
2023-05-06T01:08:03.904Z,3.90
2023-05-06T01:10:31.400Z,3.70
2023-05-06T01:13:09.817Z,3.50
2023-05-06T01:15:47.534Z,3.47
2023-05-06T01:18:17.070Z,3.43
2023-05-06T01:20:49.929Z,3.53
2023-05-06T01:23:18.186Z,3.50
2023-05-06T01:25:45.568Z,3.50
2023-05-06T01:28:13.530Z,3.23
2023-05-06T01:30:53.758Z,3.10
2023-05-06T01:33:21.367Z,3.60
2023-05-06T01:35:58.940Z,3.77
2023-05-06T01:38:52.182Z,3.50
2023-05-06T01:41:20.554Z,3.83
2023-05-06T01:43:48.555Z,4.10
2023-05-06T01:46:18.584Z,3.03
2023-05-06T01:48:46.441Z,3.70
2023-05-06T01:51:13.702Z,3.77
2023-05-06T01:53:41.339Z,3.67
2023-05-06T01:56:09.780Z,3.20
2023-05-06T01:58:38.563Z,3.20
2023-05-06T02:01:06.099Z,3.57
2023-05-06T02:03:34.263Z,3.50
2023-05-06T02:06:02.052Z,3.40
2023-05-06T02:08:32.153Z,3.40
2023-05-06T02:10:59.740Z,3.60
2023-05-06T02:13:28.453Z,3.30
2023-05-06T02:15:56.020Z,4.43
2023-05-06T02:18:25.306Z,4.23
2023-05-06T02:20:53.064Z,3.50
2023-05-06T02:23:20.532Z,3.70
2023-05-06T02:25:47.923Z,3.00
2023-05-06T02:28:15.383Z,3.37
2023-05-06T02:30:43.363Z,3.40
2023-05-06T02:33:11.100Z,4.07
2023-05-06T02:35:38.497Z,4.07
2023-05-06T02:38:05.707Z,3.70
2023-05-06T02:40:35.382Z,3.70
2023-05-06T02:43:05.006Z,3.77
2023-05-06T02:45:53.825Z,3.77
2023-05-06T02:48:40.086Z,4.80
2023-05-06T02:51:07.466Z,3.93
2023-05-06T02:53:34.900Z,4.03
2023-05-06T02:56:02.470Z,4.03
2023-05-06T02:58:30.073Z,3.80
2023-05-06T03:00:57.357Z,3.67
2023-05-06T03:03:24.567Z,3.53
2023-05-06T03:05:51.991Z,4.17
2023-05-06T03:08:19.755Z,4.00
2023-05-06T03:10:47.419Z,4.70
2023-05-06T03:13:17.959Z,4.00
2023-05-06T03:15:46.207Z,4.00
2023-05-06T03:18:13.687Z,4.00
2023-05-06T03:20:41.461Z,4.40
2023-05-06T03:23:08.661Z,4.23
2023-05-06T03:25:36.383Z,4.80
2023-05-06T03:28:04.071Z,4.40
2023-05-06T03:30:33.376Z,4.33
2023-05-06T03:33:04.174Z,4.27
2023-05-06T03:35:33.554Z,4.37
2023-05-06T03:38:02.743Z,4.50
2023-05-06T03:40:38.118Z,3.70
2023-05-06T03:43:05.972Z,3.73
2023-05-06T03:45:33.586Z,4.60
2023-05-06T03:48:03.246Z,4.10
2023-05-06T03:50:33.489Z,4.20
2023-05-06T03:53:00.871Z,4.50
2023-05-06T03:55:30.533Z,4.57
2023-05-06T03:57:58.088Z,4.90
2023-05-06T04:00:26.360Z,4.20
2023-05-06T04:02:54.941Z,4.73
2023-05-06T04:05:30.450Z,4.73
2023-05-06T04:08:00.964Z,4.73
2023-05-06T04:10:28.689Z,4.40
2023-05-06T04:13:02.079Z,4.97
2023-05-06T04:15:37.583Z,4.40
2023-05-06T04:18:08.852Z,5.00
2023-05-06T04:20:39.058Z,4.70
2023-05-06T04:23:06.872Z,5.00
2023-05-06T04:25:36.075Z,4.83
2023-05-06T04:28:04.084Z,5.20
2023-05-06T04:30:32.438Z,5.20
2023-05-06T04:32:59.686Z,5.20
2023-05-06T04:35:27.243Z,5.33
2023-05-06T04:37:57.353Z,5.30
2023-05-06T04:40:28.718Z,5.10
2023-05-06T04:42:56.087Z,5.33
2023-05-06T04:45:26.909Z,5.27
2023-05-06T04:47:56.226Z,5.27
2023-05-06T04:50:23.413Z,5.13
2023-05-06T04:52:50.938Z,6.03
2023-05-06T04:55:20.850Z,5.67
2023-05-06T04:57:52.036Z,5.77
2023-05-06T05:00:20.027Z,5.20
2023-05-06T05:02:48.132Z,5.40
2023-05-06T05:05:17.244Z,5.87
2023-05-06T05:07:48.850Z,5.40
2023-05-06T05:10:16.073Z,5.47
2023-05-06T05:12:43.325Z,5.67
2023-05-06T05:15:12.391Z,6.00
2023-05-06T05:17:40.443Z,5.63
2023-05-06T05:20:08.141Z,5.43
2023-05-06T05:22:36.492Z,5.00
2023-05-06T05:25:06.260Z,5.60
2023-05-06T05:27:34.770Z,5.90
2023-05-06T05:30:02.241Z,5.97
2023-05-06T05:32:31.516Z,5.73
2023-05-06T05:34:58.722Z,6.90
2023-05-06T05:37:25.999Z,6.70
2023-05-06T05:39:53.286Z,4.87
2023-05-06T05:42:20.847Z,5.67
2023-05-06T05:44:48.486Z,5.70
2023-05-06T05:47:15.942Z,5.30
2023-05-06T05:49:43.129Z,6.70
2023-05-06T05:52:12.313Z,6.20
2023-05-06T05:54:39.862Z,6.77
2023-05-06T05:57:07.514Z,6.07
2023-05-06T05:59:34.787Z,5.30
2023-05-06T06:02:05.081Z,5.50
2023-05-06T06:04:32.467Z,5.90
2023-05-06T06:07:01.683Z,5.90
2023-05-06T06:09:30.566Z,6.00
2023-05-06T06:12:00.641Z,6.77
2023-05-06T06:14:27.980Z,6.93
2023-05-06T06:16:55.195Z,6.83
2023-05-06T06:19:22.857Z,6.80
2023-05-06T06:21:50.264Z,7.20
2023-05-06T06:24:18.298Z,6.27
2023-05-06T06:26:45.517Z,6.40
2023-05-06T06:29:12.953Z,6.90
2023-05-06T06:31:40.782Z,6.43
2023-05-06T06:34:08.999Z,6.67
2023-05-06T06:36:36.185Z,5.80
2023-05-06T06:39:03.374Z,5.83
2023-05-06T06:41:30.857Z,6.03
2023-05-06T06:43:57.973Z,5.87
2023-05-06T06:46:28.818Z,6.00
2023-05-06T06:48:55.978Z,6.70
2023-05-06T06:51:23.192Z,6.80
2023-05-06T06:53:52.190Z,6.00
2023-05-06T06:56:19.389Z,6.50
2023-05-06T06:58:46.549Z,5.60
2023-05-06T07:01:13.733Z,5.93
2023-05-06T07:03:40.916Z,5.23
2023-05-06T07:06:09.075Z,5.50
2023-05-06T07:08:36.430Z,6.37
2023-05-06T07:11:05.922Z,6.63
2023-05-06T07:13:33.173Z,5.00
2023-05-06T07:16:00.363Z,5.80
2023-05-06T07:18:27.481Z,4.87
2023-05-06T07:20:54.665Z,5.77
2023-05-06T07:23:21.917Z,5.30
2023-05-06T07:25:49.131Z,5.83
2023-05-06T07:28:16.356Z,4.93
2023-05-06T07:30:43.632Z,4.30
2023-05-06T07:33:10.882Z,4.30
2023-05-06T07:35:38.369Z,4.37
2023-05-06T07:38:05.558Z,4.30
2023-05-06T07:40:33.094Z,4.43
2023-05-06T07:43:00.388Z,4.37
2023-05-06T07:45:27.570Z,4.10
2023-05-06T07:47:55.629Z,4.00
2023-05-06T07:50:22.872Z,4.03
2023-05-06T07:52:50.011Z,3.83
2023-05-06T07:55:17.189Z,3.90
2023-05-06T07:57:44.882Z,3.60
2023-05-06T08:00:12.754Z,3.43
2023-05-06T08:02:44.125Z,3.50
2023-05-06T08:05:14.753Z,2.83
2023-05-06T08:07:42.429Z,2.87
2023-05-06T08:10:10.226Z,3.13
2023-05-06T08:12:38.090Z,2.70
2023-05-06T08:15:05.616Z,3.33
2023-05-06T08:17:33.528Z,3.00
2023-05-06T08:20:00.730Z,3.03
2023-05-06T08:22:28.053Z,3.00
2023-05-06T08:24:55.269Z,3.47
2023-05-06T08:27:22.402Z,3.30
2023-05-06T08:29:49.809Z,3.20
2023-05-06T08:32:16.962Z,2.90
2023-05-06T08:34:44.206Z,3.27
2023-05-06T08:37:13.614Z,3.27
2023-05-06T08:39:41.209Z,3.47
2023-05-06T08:42:11.336Z,2.80
2023-05-06T08:44:38.557Z,2.37
2023-05-06T08:47:08.328Z,2.40
2023-05-06T08:49:35.615Z,2.90
2023-05-06T08:52:05.161Z,6.20
2023-05-06T08:54:37.505Z,3.17
2023-05-06T08:57:06.505Z,3.47
2023-05-06T08:59:34.423Z,2.77
2023-05-06T09:02:02.236Z,4.13
2023-05-06T09:04:29.705Z,3.43
2023-05-06T09:06:58.282Z,3.00
2023-05-06T09:09:27.300Z,3.47
2023-05-06T09:11:57.178Z,2.70
2023-05-06T09:14:24.459Z,4.30
2023-05-06T09:16:53.426Z,2.70
2023-05-06T09:19:21.912Z,3.37
2023-05-06T09:21:51.722Z,2.77
2023-05-06T09:24:21.010Z,2.87
2023-05-06T09:26:48.248Z,2.40
2023-05-06T09:29:15.546Z,2.27
2023-05-06T09:31:46.177Z,4.00
2023-05-06T09:34:17.055Z,3.57
2023-05-06T09:36:45.218Z,3.20
2023-05-06T09:39:12.405Z,4.20
2023-05-06T09:41:39.611Z,3.23
2023-05-06T09:44:06.951Z,2.90
2023-05-06T09:46:34.265Z,2.60
2023-05-06T09:49:01.880Z,2.30
2023-05-06T09:51:29.119Z,2.57
2023-05-06T09:53:58.304Z,3.53
2023-05-06T09:56:26.070Z,3.33
2023-05-06T09:58:53.534Z,2.70
2023-05-06T10:01:32.786Z,2.50
2023-05-06T10:04:04.965Z,2.50
2023-05-06T10:06:35.450Z,2.97
2023-05-06T10:09:02.733Z,2.20
2023-05-06T10:11:31.592Z,2.50
2023-05-06T10:14:00.154Z,2.50
2023-05-06T10:16:28.128Z,2.53
2023-05-06T10:18:56.023Z,2.30
2023-05-06T10:21:28.379Z,4.10
2023-05-06T10:24:09.081Z,3.93
2023-05-06T10:26:39.909Z,2.37
2023-05-06T10:29:10.856Z,2.20
2023-05-06T10:31:39.996Z,2.67
2023-05-06T10:34:09.366Z,2.47
2023-05-06T10:36:39.978Z,2.47
2023-05-06T10:39:10.055Z,2.70
2023-05-06T10:41:37.880Z,2.77
2023-05-06T10:44:06.243Z,2.63
2023-05-06T10:46:54.430Z,3.80
2023-05-06T10:49:21.716Z,2.20
2023-05-06T10:52:11.975Z,3.10
2023-05-06T10:54:51.990Z,2.67
2023-05-06T10:57:26.001Z,2.17
2023-05-06T10:59:55.754Z,2.70
2023-05-06T11:02:23.963Z,2.67
2023-05-06T11:04:53.029Z,2.13
2023-05-06T11:07:24.683Z,7.60
2023-05-06T11:09:58.496Z,2.10
2023-05-06T11:12:44.630Z,2.40
2023-05-06T11:15:21.126Z,2.53
2023-05-06T11:17:48.410Z,2.23
2023-05-06T11:20:19.617Z,2.30
2023-05-06T11:22:46.823Z,2.20
2023-05-06T11:25:14.170Z,3.60
2023-05-06T11:27:41.789Z,10.80
2023-05-06T11:30:14.469Z,4.80
2023-05-06T11:32:43.849Z,3.67
2023-05-06T11:35:12.223Z,4.00
2023-05-06T11:37:39.451Z,3.30
2023-05-06T11:40:14.542Z,2.50
2023-05-06T11:42:41.823Z,3.30
2023-05-06T11:45:09.356Z,2.20
2023-05-06T11:47:36.634Z,3.27
2023-05-06T11:50:07.305Z,3.40
2023-05-06T11:52:35.946Z,2.00
2023-05-06T11:55:03.085Z,2.67
2023-05-06T11:57:30.353Z,2.60
2023-05-06T11:59:58.772Z,3.00
2023-05-06T12:02:28.034Z,2.83
2023-05-06T12:04:56.261Z,2.67
2023-05-06T12:07:23.631Z,2.50
2023-05-06T12:09:51.392Z,4.93
2023-05-06T12:12:24.918Z,2.83
2023-05-06T12:14:53.442Z,2.63
2023-05-06T12:17:21.412Z,2.63
2023-05-06T12:19:48.993Z,2.13
2023-05-06T12:22:16.158Z,2.30
2023-05-06T12:24:45.413Z,2.63
2023-05-06T12:27:12.654Z,2.30
2023-05-06T12:29:39.916Z,3.90
2023-05-06T12:32:08.967Z,3.00
2023-05-06T12:34:38.553Z,5.40
2023-05-06T12:37:06.402Z,4.70
2023-05-06T12:39:37.747Z,3.00
2023-05-06T12:42:05.368Z,2.40
2023-05-06T12:44:33.290Z,3.60
2023-05-06T12:47:07.370Z,2.63
2023-05-06T12:49:47.424Z,2.60
2023-05-06T12:52:15.114Z,2.80
2023-05-06T12:54:43.713Z,5.33
2023-05-06T12:57:10.954Z,3.20
2023-05-06T12:59:38.210Z,5.00
2023-05-06T13:02:06.922Z,2.80
2023-05-06T13:04:34.196Z,2.60
2023-05-06T13:07:01.420Z,2.30
2023-05-06T13:09:28.566Z,2.40
2023-05-06T13:11:55.779Z,2.10
2023-05-06T13:14:23.469Z,2.20
2023-05-06T13:16:50.750Z,2.30
2023-05-06T13:19:31.543Z,2.10
2023-05-06T13:22:00.405Z,2.27
2023-05-06T13:24:27.971Z,2.20
2023-05-06T13:26:56.920Z,2.43
2023-05-06T13:29:24.336Z,1.97
2023-05-06T13:31:51.964Z,1.90
2023-05-06T13:34:20.759Z,2.03
2023-05-06T13:36:49.573Z,2.17
2023-05-06T13:39:17.118Z,2.33
2023-05-06T13:41:47.457Z,3.83
2023-05-06T13:44:14.647Z,2.87
2023-05-06T13:46:43.568Z,2.40
2023-05-06T13:49:13.184Z,2.90
2023-05-06T13:51:41.018Z,2.90
2023-05-06T13:54:09.994Z,2.47
2023-05-06T13:56:37.256Z,2.00
2023-05-06T13:59:05.444Z,2.20
2023-05-06T14:01:33.003Z,2.40
2023-05-06T14:04:00.174Z,2.37
2023-05-06T14:06:27.999Z,7.53
2023-05-06T14:08:55.645Z,9.30
2023-05-06T14:11:22.898Z,8.93
2023-05-06T14:13:50.343Z,11.00
2023-05-06T14:16:17.581Z,5.40
2023-05-06T14:18:44.824Z,2.30
2023-05-06T14:21:11.961Z,2.10
2023-05-06T14:23:39.075Z,3.20
2023-05-06T14:26:06.681Z,2.67
2023-05-06T14:28:33.907Z,2.20
2023-05-06T14:31:01.175Z,2.20
2023-05-06T14:33:29.385Z,2.37
2023-05-06T14:35:58.449Z,2.07
2023-05-06T14:38:25.571Z,2.40
2023-05-06T14:40:52.690Z,2.40
2023-05-06T14:43:19.834Z,2.50
2023-05-06T14:45:48.194Z,2.40
2023-05-06T14:48:15.638Z,2.00
2023-05-06T14:50:44.234Z,2.10
2023-05-06T14:53:11.650Z,2.57
2023-05-06T14:55:38.781Z,2.47
2023-05-06T14:58:06.354Z,2.30
2023-05-06T15:00:33.598Z,2.90
2023-05-06T15:03:00.798Z,2.60
2023-05-06T15:05:28.046Z,2.40
2023-05-06T15:07:55.242Z,2.60
2023-05-06T15:10:22.552Z,2.10
2023-05-06T15:12:50.018Z,2.53
2023-05-06T15:15:18.595Z,2.53
2023-05-06T15:17:46.015Z,2.60
2023-05-06T15:20:13.955Z,2.40
2023-05-06T15:22:42.681Z,2.50
2023-05-06T15:25:16.674Z,2.33
2023-05-06T15:27:49.849Z,2.10
2023-05-06T15:30:17.103Z,1.87
2023-05-06T15:32:44.445Z,2.20
2023-05-06T15:35:11.927Z,2.03
2023-05-06T15:37:40.287Z,2.50
2023-05-06T15:40:12.182Z,2.20
2023-05-06T15:42:39.849Z,2.57
2023-05-06T15:45:07.694Z,2.00
2023-05-06T15:47:34.855Z,2.50
2023-05-06T15:50:02.146Z,2.40
2023-05-06T15:52:31.138Z,2.70
2023-05-06T15:55:00.036Z,2.47
2023-05-06T15:57:30.079Z,2.40
2023-05-06T15:59:57.820Z,2.67
2023-05-06T16:02:27.284Z,2.90
2023-05-06T16:04:55.019Z,2.53
2023-05-06T16:07:24.900Z,3.50
2023-05-06T16:09:52.142Z,4.00
2023-05-06T16:12:19.687Z,2.60
2023-05-06T16:14:47.418Z,2.27
2023-05-06T16:17:15.576Z,2.40
2023-05-06T16:19:43.313Z,2.40
2023-05-06T16:22:10.510Z,2.53
2023-05-06T16:24:38.502Z,2.63
2023-05-06T16:27:05.705Z,3.50
2023-05-06T16:29:33.007Z,2.60
2023-05-06T16:32:01.032Z,2.60
2023-05-06T16:34:28.577Z,2.63
2023-05-06T16:36:57.249Z,3.50
2023-05-06T16:39:26.473Z,3.33
2023-05-06T16:41:53.970Z,2.80
2023-05-06T16:44:21.101Z,3.40
2023-05-06T16:46:49.294Z,3.40
2023-05-06T16:49:16.533Z,3.50
2023-05-06T16:51:43.750Z,2.80
2023-05-06T16:54:10.966Z,3.30
2023-05-06T16:56:48.537Z,3.10
2023-05-06T16:59:21.389Z,3.20
2023-05-06T17:01:49.320Z,2.70
2023-05-06T17:04:17.834Z,3.03
2023-05-06T17:06:45.116Z,4.10
2023-05-06T17:09:12.349Z,3.77
2023-05-06T17:11:41.263Z,4.50
2023-05-06T17:14:11.105Z,4.00
2023-05-06T17:16:45.646Z,3.40
2023-05-06T17:19:13.355Z,3.53
2023-05-06T17:21:40.749Z,3.90
2023-05-06T17:24:08.087Z,3.90
2023-05-06T17:26:35.960Z,3.23
2023-05-06T17:29:04.148Z,4.20
2023-05-06T17:31:31.368Z,5.13
2023-05-06T17:33:58.584Z,4.27
2023-05-06T17:36:26.206Z,3.80
2023-05-06T17:39:02.979Z,4.23
2023-05-06T17:41:35.170Z,4.67
2023-05-06T17:44:03.137Z,4.43
2023-05-06T17:46:31.613Z,4.20
2023-05-06T17:48:59.146Z,5.47
2023-05-06T17:51:26.816Z,4.77
2023-05-06T17:53:54.130Z,5.40
2023-05-06T17:56:22.446Z,9.33
2023-05-06T17:58:51.814Z,10.40
2023-05-06T18:01:19.419Z,5.77
2023-05-06T18:03:47.886Z,21.07
2023-05-06T18:06:16.565Z,9.43
2023-05-06T18:08:47.128Z,9.53
2023-05-06T18:11:16.490Z,3.40
2023-05-06T18:13:44.451Z,4.73
2023-05-06T18:16:12.553Z,4.07
2023-05-06T18:18:40.278Z,5.20
2023-05-06T18:21:07.462Z,4.60
2023-05-06T18:23:34.641Z,5.57
2023-05-06T18:26:04.251Z,4.23
2023-05-06T18:28:32.646Z,4.10
2023-05-06T18:30:59.887Z,4.07
2023-05-06T18:33:27.798Z,4.07
2023-05-06T18:35:54.961Z,5.70
2023-05-06T18:38:24.643Z,4.33
2023-05-06T18:40:51.808Z,4.60
2023-05-06T18:43:21.570Z,7.00
2023-05-06T18:45:48.819Z,5.43
2023-05-06T18:48:19.216Z,4.30
2023-05-06T18:50:46.375Z,8.20
2023-05-06T18:53:14.229Z,9.53
2023-05-06T18:55:41.378Z,5.27
2023-05-06T18:58:08.823Z,5.50
2023-05-06T19:00:37.367Z,6.33
2023-05-06T19:03:04.673Z,4.90
2023-05-06T19:05:31.913Z,4.70
2023-05-06T19:07:59.168Z,5.50
2023-05-06T19:10:26.602Z,8.80
2023-05-06T19:12:54.177Z,9.03
2023-05-06T19:15:21.427Z,9.97
2023-05-06T19:17:49.667Z,8.60
2023-05-06T19:20:16.977Z,5.60
2023-05-06T19:22:44.269Z,8.53
2023-05-06T19:25:13.981Z,6.20
2023-05-06T19:27:41.363Z,4.73
2023-05-06T19:30:09.010Z,4.57
2023-05-06T19:32:36.247Z,6.77
2023-05-06T19:35:07.756Z,5.40
2023-05-06T19:37:36.673Z,5.50
2023-05-06T19:40:04.912Z,4.80
2023-05-06T19:42:32.164Z,4.30
2023-05-06T19:44:59.435Z,4.40
2023-05-06T19:47:29.997Z,3.77
2023-05-06T19:49:57.260Z,3.40
2023-05-06T19:52:27.016Z,4.00
2023-05-06T19:54:55.537Z,3.60
2023-05-06T19:57:23.310Z,4.40
2023-05-06T19:59:50.476Z,4.10
2023-05-06T20:02:17.690Z,4.50
2023-05-06T20:04:44.943Z,3.53
2023-05-06T20:07:13.004Z,3.57
2023-05-06T20:09:40.353Z,4.33
2023-05-06T20:12:07.601Z,5.27
2023-05-06T20:14:35.820Z,4.50
2023-05-06T20:17:03.416Z,4.20
2023-05-06T20:19:31.207Z,3.80
2023-05-06T20:21:59.490Z,3.60
2023-05-06T20:24:29.524Z,3.97
2023-05-06T20:26:58.809Z,4.20
2023-05-06T20:29:26.567Z,3.80
2023-05-06T20:31:54.439Z,3.33
2023-05-06T20:34:24.381Z,3.90
2023-05-06T20:36:54.256Z,3.60
2023-05-06T20:39:22.160Z,4.00
2023-05-06T20:41:49.285Z,3.63
2023-05-06T20:44:17.660Z,3.33
2023-05-06T20:46:46.046Z,3.67
2023-05-06T20:49:15.687Z,2.67
2023-05-06T20:51:43.371Z,2.97
2023-05-06T20:54:11.638Z,2.90
2023-05-06T20:56:38.793Z,3.60
2023-05-06T20:59:06.062Z,3.00
2023-05-06T21:01:33.343Z,3.10
2023-05-06T21:04:03.010Z,3.40
2023-05-06T21:06:32.079Z,3.87
2023-05-06T21:08:59.254Z,3.50
2023-05-06T21:11:28.782Z,3.33
2023-05-06T21:13:56.214Z,3.13
2023-05-06T21:16:23.775Z,3.63
2023-05-06T21:18:51.275Z,3.40
2023-05-06T21:21:19.482Z,3.10
2023-05-06T21:23:46.635Z,3.27
2023-05-06T21:26:14.087Z,3.20
2023-05-06T21:28:41.270Z,3.37
2023-05-06T21:31:08.618Z,3.13
2023-05-06T21:33:36.478Z,4.50
2023-05-06T21:36:05.046Z,3.93
2023-05-06T21:38:32.246Z,4.53
2023-05-06T21:40:59.392Z,4.17
2023-05-06T21:43:26.552Z,4.10
2023-05-06T21:45:53.877Z,3.40
2023-05-06T21:48:23.435Z,3.33
2023-05-06T21:50:50.743Z,3.57
2023-05-06T21:53:17.914Z,3.07
2023-05-06T21:55:53.011Z,5.30
2023-05-06T21:58:20.231Z,4.17
2023-05-06T22:00:47.397Z,3.30
2023-05-06T22:03:14.754Z,4.17
2023-05-06T22:05:43.050Z,3.63
2023-05-06T22:08:10.684Z,3.50
2023-05-06T22:10:37.836Z,3.63
2023-05-06T22:13:05.355Z,4.07
2023-05-06T22:15:32.934Z,4.00
2023-05-06T22:18:00.306Z,3.47
2023-05-06T22:20:28.299Z,3.40
2023-05-06T22:22:55.633Z,3.30
2023-05-06T22:25:23.896Z,3.93
2023-05-06T22:27:54.088Z,3.47
2023-05-06T22:30:21.253Z,3.70
2023-05-06T22:32:49.527Z,3.40
2023-05-06T22:35:17.117Z,3.63
2023-05-06T22:37:45.630Z,3.57
2023-05-06T22:40:13.081Z,3.70
2023-05-06T22:42:40.377Z,4.50
2023-05-06T22:45:07.995Z,3.37
2023-05-06T22:47:35.548Z,4.10
2023-05-06T22:50:02.995Z,3.57
2023-05-06T22:52:30.624Z,3.67
2023-05-06T22:54:57.764Z,4.70
2023-05-06T22:57:25.377Z,3.43
2023-05-06T22:59:52.738Z,3.73
2023-05-06T23:02:20.074Z,3.40
2023-05-06T23:04:47.881Z,3.20
2023-05-06T23:07:16.259Z,3.50
2023-05-06T23:09:43.668Z,3.77
2023-05-06T23:12:11.363Z,3.40
2023-05-06T23:14:38.680Z,4.00
2023-05-06T23:17:07.149Z,3.80
2023-05-06T23:19:34.692Z,3.70
2023-05-06T23:22:01.856Z,3.30
2023-05-06T23:24:31.626Z,4.17
2023-05-06T23:27:02.149Z,3.73
2023-05-06T23:29:31.113Z,3.90
2023-05-06T23:31:58.672Z,4.10
2023-05-06T23:34:26.194Z,3.80
2023-05-06T23:36:53.840Z,3.70
2023-05-06T23:39:21.655Z,3.60
2023-05-06T23:41:49.115Z,3.67
2023-05-06T23:44:16.664Z,4.00
2023-05-06T23:46:44.685Z,4.00
2023-05-06T23:49:12.587Z,3.67
2023-05-06T23:51:40.066Z,3.80
2023-05-06T23:54:08.269Z,3.40
2023-05-06T23:56:35.943Z,4.40
2023-05-06T23:59:03.866Z,3.77
